createdAt,value
2018-07-09T00:02:10.431Z,62.55
2018-07-09T00:04:39.464Z,62.50
2018-07-09T00:07:08.534Z,62.95
2018-07-09T00:09:37.052Z,62.57
2018-07-09T00:12:06.137Z,63.18
2018-07-09T00:14:35.059Z,62.74
2018-07-09T00:17:03.687Z,62.76
2018-07-09T00:19:32.236Z,63.28
2018-07-09T00:22:00.754Z,63.49
2018-07-09T00:24:29.265Z,63.96
2018-07-09T00:26:58.355Z,64.30
2018-07-09T00:29:28.157Z,64.65
2018-07-09T00:31:56.747Z,64.98
2018-07-09T00:34:25.277Z,64.98
2018-07-09T00:36:53.837Z,64.93
2018-07-09T00:46:09.883Z,64.60
2018-07-09T00:48:38.338Z,64.77
2018-07-09T00:51:06.943Z,64.44
2018-07-09T00:53:35.445Z,64.96
2018-07-09T00:56:04.927Z,65.31
2018-07-09T00:58:33.760Z,65.07
2018-07-09T01:01:02.337Z,65.37
2018-07-09T01:03:32.398Z,64.83
2018-07-09T01:06:00.969Z,64.92
2018-07-09T01:08:29.578Z,65.29
2018-07-09T01:11:09.869Z,64.79
2018-07-09T01:13:44.899Z,64.95
2018-07-09T01:16:13.925Z,64.87
2018-07-09T01:18:43.056Z,64.54
2018-07-09T01:21:13.307Z,64.41
2018-07-09T01:23:43.325Z,64.45
2018-07-09T01:26:12.644Z,64.88
2018-07-09T01:28:42.524Z,64.96
2018-07-09T01:31:12.324Z,64.76
2018-07-09T01:33:41.603Z,64.72
2018-07-09T01:36:11.769Z,64.42
2018-07-09T01:38:42.126Z,65.00
2018-07-09T01:41:11.461Z,65.42
2018-07-09T01:43:40.126Z,65.68
2018-07-09T01:46:09.768Z,65.33
2018-07-09T01:48:38.335Z,65.48
2018-07-09T01:51:07.531Z,65.55
2018-07-09T01:53:36.558Z,65.47
2018-07-09T01:56:05.252Z,65.99
2018-07-09T01:58:34.175Z,66.55
2018-07-09T02:01:02.753Z,66.15
2018-07-09T02:03:31.412Z,66.36
2018-07-09T02:06:00.657Z,66.59
2018-07-09T02:08:29.324Z,65.84
2018-07-09T02:10:58.022Z,65.86
2018-07-09T02:13:26.697Z,65.95
2018-07-09T02:15:56.145Z,67.01
2018-07-09T02:18:24.601Z,66.93
2018-07-09T02:20:53.183Z,66.68
2018-07-09T02:23:21.772Z,67.61
2018-07-09T02:25:51.475Z,68.42
2018-07-09T02:28:20.616Z,68.60
2018-07-09T02:30:49.975Z,67.64
2018-07-09T02:33:18.544Z,67.65
2018-07-09T02:35:47.244Z,67.47
2018-07-09T02:38:15.777Z,67.62
2018-07-09T02:40:44.972Z,67.28
2018-07-09T02:43:14.683Z,67.12
2018-07-09T02:45:43.427Z,67.40
2018-07-09T02:48:12.118Z,67.04
2018-07-09T02:50:40.925Z,67.34
2018-07-09T02:53:09.392Z,67.05
2018-07-09T02:55:38.141Z,67.80
2018-07-09T02:58:06.664Z,68.18
2018-07-09T03:00:35.460Z,68.24
2018-07-09T03:03:05.151Z,68.92
2018-07-09T03:05:34.420Z,69.09
2018-07-09T03:08:03.485Z,69.69
2018-07-09T03:10:32.555Z,69.80
2018-07-09T03:13:01.227Z,69.15
2018-07-09T03:15:29.972Z,68.68
2018-07-09T03:17:59.926Z,68.71
2018-07-09T03:20:28.687Z,69.07
2018-07-09T03:22:58.479Z,68.77
2018-07-09T03:25:27.711Z,69.10
2018-07-09T03:27:56.526Z,69.53
2018-07-09T03:31:54.911Z,69.86
2018-07-09T03:34:23.780Z,69.76
2018-07-09T03:36:53.620Z,69.05
2018-07-09T03:39:24.244Z,69.19
2018-07-09T03:41:54.204Z,69.92
2018-07-09T03:44:23.088Z,69.89
2018-07-09T03:46:51.864Z,70.01
2018-07-09T03:49:21.309Z,69.65
2018-07-09T03:51:49.862Z,69.85
2018-07-09T03:54:19.335Z,69.29
2018-07-09T03:56:47.841Z,69.34
2018-07-09T03:59:17.096Z,69.64
2018-07-09T04:01:46.109Z,70.23
2018-07-09T04:04:14.980Z,69.90
2018-07-09T04:06:44.026Z,69.64
2018-07-09T04:09:13.433Z,69.81
2018-07-09T04:11:42.019Z,70.98
2018-07-09T04:14:11.163Z,70.93
2018-07-09T04:16:39.939Z,70.82
2018-07-09T04:19:08.521Z,70.07
2018-07-09T04:23:06.196Z,69.92
2018-07-09T04:25:34.728Z,69.81
2018-07-09T04:28:03.285Z,69.87
2018-07-09T04:30:32.890Z,69.28
2018-07-09T04:33:02.505Z,69.03
2018-07-09T04:35:37.952Z,68.79
2018-07-09T04:38:09.612Z,68.84
2018-07-09T04:40:38.132Z,68.86
2018-07-09T04:43:08.069Z,70.07
2018-07-09T04:45:36.669Z,70.75
2018-07-09T04:48:06.406Z,70.80
2018-07-09T04:50:35.791Z,71.41
2018-07-09T04:53:04.363Z,71.45
2018-07-09T04:55:32.917Z,71.10
2018-07-09T04:58:01.634Z,71.86
2018-07-09T05:00:30.634Z,71.46
2018-07-09T05:02:59.305Z,71.99
2018-07-09T05:05:28.071Z,72.36
2018-07-09T05:07:58.112Z,71.89
2018-07-09T05:10:26.705Z,71.71
2018-07-09T05:12:55.951Z,71.11
2018-07-09T05:15:25.158Z,71.28
2018-07-09T05:17:53.801Z,71.70
2018-07-09T05:20:22.957Z,70.49
2018-07-09T05:22:51.541Z,70.65
2018-07-09T05:25:20.995Z,70.53
2018-07-09T05:27:50.340Z,70.43
2018-07-09T05:30:18.882Z,70.69
2018-07-09T05:32:47.706Z,70.58
2018-07-09T05:35:16.293Z,70.57
2018-07-09T05:37:48.348Z,70.52
2018-07-09T05:40:19.315Z,71.32
2018-07-09T05:42:50.570Z,71.32
2018-07-09T05:45:20.505Z,71.52
2018-07-09T05:47:51.138Z,71.27
2018-07-09T05:50:20.014Z,70.79
2018-07-09T05:52:49.522Z,70.74
2018-07-09T05:55:18.371Z,70.01
2018-07-09T05:57:47.044Z,69.85
2018-07-09T06:00:17.077Z,69.27
2018-07-09T06:02:46.158Z,69.03
2018-07-09T06:05:16.146Z,69.63
2018-07-09T06:07:45.925Z,69.10
2018-07-09T06:10:14.844Z,68.77
2018-07-09T06:12:43.373Z,68.63
2018-07-09T06:15:13.769Z,68.50
2018-07-09T06:17:43.754Z,68.26
2018-07-09T06:20:13.470Z,67.80
2018-07-09T06:22:42.228Z,67.80
2018-07-09T06:25:11.669Z,67.33
2018-07-09T06:27:41.277Z,67.23
2018-07-09T06:30:10.870Z,67.07
2018-07-09T06:32:39.402Z,66.54
2018-07-09T06:35:07.967Z,67.09
2018-07-09T06:37:39.033Z,66.63
2018-07-09T06:40:07.648Z,65.71
2018-07-09T06:42:37.264Z,66.91
2018-07-09T06:45:07.910Z,66.55
2018-07-09T06:47:37.603Z,66.49
2018-07-09T06:50:12.055Z,66.24
2018-07-09T06:52:47.805Z,66.76
2018-07-09T06:55:18.223Z,65.92
2018-07-09T06:57:50.624Z,65.60
2018-07-09T07:00:21.880Z,64.98
2018-07-09T07:02:50.917Z,64.46
2018-07-09T07:05:20.552Z,64.10
2018-07-09T07:07:49.167Z,64.61
2018-07-09T07:10:18.307Z,64.39
2018-07-09T07:12:48.631Z,64.04
2018-07-09T07:15:19.007Z,63.97
2018-07-09T07:17:47.531Z,63.85
2018-07-09T07:20:16.653Z,63.56
2018-07-09T07:22:45.259Z,63.53
2018-07-09T07:25:14.111Z,63.24
2018-07-09T07:27:42.568Z,63.24
2018-07-09T07:30:11.208Z,63.32
2018-07-09T07:32:40.279Z,63.59
2018-07-09T07:35:08.778Z,62.34
2018-07-09T07:37:37.224Z,62.38
2018-07-09T07:40:05.901Z,62.47
2018-07-09T07:42:34.425Z,61.69
2018-07-09T07:45:02.907Z,61.29
2018-07-09T07:47:32.371Z,60.34
2018-07-09T07:50:01.839Z,60.80
2018-07-09T07:52:30.584Z,60.79
2018-07-09T07:54:59.969Z,60.65
2018-07-09T07:57:31.928Z,60.40
2018-07-09T08:00:02.173Z,60.25
2018-07-09T08:02:31.098Z,60.14
2018-07-09T08:05:00.960Z,59.13
2018-07-09T08:07:30.614Z,58.93
2018-07-09T08:10:00.311Z,58.57
2018-07-09T08:15:00.061Z,58.10
2018-07-09T08:17:29.645Z,57.88
2018-07-09T08:19:58.226Z,57.81
2018-07-09T08:22:26.991Z,57.40
2018-07-09T08:24:55.743Z,57.48
2018-07-09T08:27:24.237Z,57.27
2018-07-09T08:29:52.820Z,58.68
2018-07-09T08:32:22.954Z,57.30
2018-07-09T08:34:52.191Z,57.58
2018-07-09T08:37:21.201Z,57.43
2018-07-09T08:39:50.705Z,58.20
2018-07-09T08:42:19.412Z,57.48
2018-07-09T08:44:52.769Z,57.99
2018-07-09T08:47:22.512Z,58.27
2018-07-09T08:49:51.984Z,57.79
2018-07-09T08:52:21.322Z,57.52
2018-07-09T08:54:50.190Z,57.75
2018-07-09T08:57:18.800Z,58.30
2018-07-09T08:59:47.438Z,58.51
2018-07-09T09:02:17.638Z,58.64
2018-07-09T09:04:46.404Z,58.82
2018-07-09T09:07:16.006Z,58.88
2018-07-09T09:09:45.511Z,58.90
2018-07-09T09:12:14.328Z,58.37
2018-07-09T09:14:44.590Z,58.81
2018-07-09T09:17:14.592Z,58.72
2018-07-09T09:19:44.649Z,59.04
2018-07-09T09:22:14.338Z,59.09
2018-07-09T09:24:43.644Z,59.56
2018-07-09T09:27:13.425Z,59.25
2018-07-09T09:29:43.829Z,59.25
2018-07-09T09:32:14.438Z,59.84
2018-07-09T09:34:44.478Z,59.20
2018-07-09T09:37:14.639Z,59.43
2018-07-09T09:39:44.690Z,59.42
2018-07-09T09:42:13.493Z,59.43
2018-07-09T09:44:42.323Z,59.62
2018-07-09T09:47:12.125Z,59.24
2018-07-09T09:49:41.125Z,59.72
2018-07-09T09:52:09.742Z,60.74
2018-07-09T09:54:39.124Z,61.02
2018-07-09T09:57:09.300Z,60.47
2018-07-09T09:59:38.635Z,60.13
2018-07-09T10:02:07.750Z,58.85
2018-07-09T10:04:36.968Z,58.34
2018-07-09T10:07:06.112Z,57.86
2018-07-09T10:09:34.697Z,57.97
2018-07-09T10:12:03.264Z,57.59
2018-07-09T10:14:31.846Z,58.79
2018-07-09T10:17:00.410Z,58.70
2018-07-09T10:19:31.010Z,59.12
2018-07-09T10:22:00.073Z,58.94
2018-07-09T10:24:28.658Z,58.75
2018-07-09T10:26:57.233Z,59.55
2018-07-09T10:29:25.837Z,59.22
2018-07-09T10:31:54.328Z,59.08
2018-07-09T10:34:23.690Z,58.33
2018-07-09T10:36:52.151Z,57.71
2018-07-09T10:39:21.775Z,56.79
2018-07-09T10:41:50.337Z,56.42
2018-07-09T10:44:19.853Z,56.39
2018-07-09T10:46:49.303Z,57.22
2018-07-09T10:49:18.080Z,56.44
2018-07-09T10:51:46.827Z,56.35
2018-07-09T10:54:16.689Z,56.72
2018-07-09T10:56:46.226Z,57.23
2018-07-09T10:59:15.140Z,58.17
2018-07-09T11:01:44.758Z,58.51
2018-07-09T11:04:14.776Z,58.04
2018-07-09T11:06:44.517Z,57.87
2018-07-09T11:09:14.268Z,56.34
2018-07-09T11:11:43.605Z,55.17
2018-07-09T11:14:12.102Z,55.20
2018-07-09T11:16:41.422Z,55.78
2018-07-09T11:19:10.252Z,56.67
2018-07-09T11:21:38.889Z,56.17
2018-07-09T11:24:07.512Z,56.21
2018-07-09T11:26:36.320Z,56.58
2018-07-09T11:29:05.426Z,56.64
2018-07-09T11:31:36.378Z,56.66
2018-07-09T11:34:05.027Z,56.82
2018-07-09T11:36:33.759Z,57.04
2018-07-09T11:39:02.797Z,56.84
2018-07-09T11:41:32.816Z,56.98
2018-07-09T11:44:01.356Z,55.33
2018-07-09T11:46:30.727Z,54.90
2018-07-09T11:48:59.521Z,53.32
2018-07-09T11:51:28.118Z,53.49
2018-07-09T11:53:57.139Z,53.38
2018-07-09T11:56:25.907Z,53.87
2018-07-09T11:58:55.367Z,53.89
2018-07-09T12:01:23.889Z,54.10
2018-07-09T12:03:52.663Z,54.30
2018-07-09T12:06:21.245Z,54.95
2018-07-09T12:08:51.357Z,56.20
2018-07-09T12:11:19.873Z,55.59
2018-07-09T12:13:48.607Z,55.62
2018-07-09T12:16:18.190Z,56.14
2018-07-09T12:18:47.290Z,56.46
2018-07-09T12:21:16.011Z,55.19
2018-07-09T12:23:44.564Z,55.15
2018-07-09T12:26:14.049Z,55.33
2018-07-09T12:30:12.056Z,54.66
2018-07-09T12:32:40.660Z,55.20
2018-07-09T12:35:10.185Z,54.28
2018-07-09T12:37:38.900Z,54.53
2018-07-09T12:40:07.592Z,54.69
2018-07-09T12:42:36.141Z,53.95
2018-07-09T12:45:04.939Z,54.82
2018-07-09T12:47:34.423Z,54.95
2018-07-09T12:50:03.269Z,53.93
2018-07-09T12:52:31.945Z,53.77
2018-07-09T12:55:00.752Z,53.97
2018-07-09T12:57:29.392Z,53.48
2018-07-09T12:59:58.265Z,53.58
2018-07-09T13:02:27.486Z,53.60
2018-07-09T13:04:56.224Z,53.15
2018-07-09T13:07:29.737Z,52.78
2018-07-09T13:09:58.673Z,52.73
2018-07-09T13:12:27.552Z,52.98
2018-07-09T13:14:58.573Z,53.64
2018-07-09T13:17:28.228Z,52.88
2018-07-09T13:19:57.782Z,51.90
2018-07-09T13:22:27.585Z,52.61
2018-07-09T13:24:56.590Z,52.57
2018-07-09T13:27:26.517Z,52.43
2018-07-09T13:29:55.636Z,52.01
2018-07-09T13:32:25.284Z,52.46
2018-07-09T13:34:55.135Z,52.52
2018-07-09T13:37:23.794Z,52.19
2018-07-09T13:39:53.605Z,51.75
2018-07-09T13:42:22.737Z,51.21
2018-07-09T13:44:51.461Z,51.25
2018-07-09T13:47:20.424Z,51.85
2018-07-09T13:49:49.442Z,51.93
2018-07-09T13:52:18.107Z,51.51
2018-07-09T13:54:46.747Z,51.49
2018-07-09T13:57:15.460Z,50.77
2018-07-09T13:59:44.216Z,50.72
2018-07-09T14:02:13.741Z,49.70
2018-07-09T14:04:42.513Z,49.83
2018-07-09T14:07:11.140Z,50.68
2018-07-09T14:09:39.749Z,50.14
2018-07-09T14:12:08.508Z,50.19
2018-07-09T14:14:37.219Z,49.18
2018-07-09T14:17:07.789Z,49.01
2018-07-09T14:20:46.124Z,49.26
2018-07-09T14:23:16.396Z,49.08
2018-07-09T14:25:45.519Z,48.93
2018-07-09T14:28:14.041Z,48.55
2018-07-09T14:30:43.104Z,49.15
2018-07-09T14:33:12.520Z,48.36
2018-07-09T14:35:41.647Z,47.91
2018-07-09T14:38:10.366Z,47.91
2018-07-09T14:40:39.072Z,48.34
2018-07-09T14:43:07.598Z,48.37
2018-07-09T14:45:42.234Z,47.00
2018-07-09T14:48:10.836Z,47.02
2018-07-09T14:50:39.347Z,47.72
2018-07-09T14:53:07.896Z,47.38
2018-07-09T14:55:36.595Z,48.28
2018-07-09T14:58:05.492Z,47.76
2018-07-09T15:00:34.656Z,48.04
2018-07-09T15:03:03.305Z,48.01
2018-07-09T15:05:35.402Z,48.91
2018-07-09T15:08:04.412Z,49.24
2018-07-09T15:10:33.087Z,49.52
2018-07-09T15:13:02.128Z,48.62
2018-07-09T15:15:31.992Z,48.91
2018-07-09T15:18:00.857Z,49.17
2018-07-09T15:20:29.378Z,50.03
2018-07-09T15:22:58.099Z,50.45
2018-07-09T15:25:26.723Z,50.83
2018-07-09T15:27:55.216Z,50.82
2018-07-09T15:30:23.946Z,51.63
2018-07-09T15:32:52.500Z,51.64
2018-07-09T15:35:21.256Z,51.65
2018-07-09T15:37:49.815Z,51.13
2018-07-09T15:40:18.329Z,51.37
2018-07-09T15:42:47.009Z,51.38
2018-07-09T15:45:15.559Z,51.11
2018-07-09T15:47:44.211Z,52.08
2018-07-09T15:50:12.853Z,51.72
2018-07-09T15:52:43.790Z,52.32
2018-07-09T15:55:12.414Z,52.10
2018-07-09T15:57:41.095Z,52.18
2018-07-09T16:00:09.997Z,52.07
2018-07-09T16:02:38.574Z,52.35
2018-07-09T16:05:08.827Z,52.57
2018-07-09T16:07:38.046Z,51.91
2018-07-09T16:10:06.817Z,52.11
2018-07-09T16:12:35.429Z,52.35
2018-07-09T16:15:03.986Z,52.09
2018-07-09T16:17:33.550Z,52.58
2018-07-09T16:20:03.721Z,52.66
2018-07-09T16:22:33.381Z,52.77
2018-07-09T16:25:02.399Z,53.14
2018-07-09T16:27:30.988Z,52.96
2018-07-09T16:30:00.555Z,52.21
2018-07-09T16:32:30.268Z,52.03
2018-07-09T16:34:58.936Z,52.56
2018-07-09T16:37:27.475Z,52.86
2018-07-09T16:39:57.434Z,52.71
2018-07-09T16:42:26.100Z,52.76
2018-07-09T16:44:56.017Z,53.14
2018-07-09T16:47:25.239Z,53.34
2018-07-09T16:49:54.807Z,53.50
2018-07-09T16:52:23.925Z,53.75
2018-07-09T16:54:53.810Z,54.06
2018-07-09T16:57:22.546Z,53.42
2018-07-09T16:59:52.051Z,53.46
2018-07-09T17:02:21.499Z,53.38
2018-07-09T17:04:51.198Z,53.47
2018-07-09T17:07:20.077Z,53.64
2018-07-09T17:10:03.969Z,54.18
2018-07-09T17:12:33.476Z,53.49
2018-07-09T17:15:02.694Z,53.10
2018-07-09T17:17:33.398Z,53.73
2018-07-09T17:20:02.145Z,52.78
2018-07-09T17:22:30.667Z,52.65
2018-07-09T17:24:59.217Z,53.62
2018-07-09T17:27:28.017Z,53.09
2018-07-09T17:29:57.059Z,52.87
2018-07-09T17:32:25.647Z,53.29
2018-07-09T17:34:54.346Z,53.24
2018-07-09T17:37:23.226Z,52.50
2018-07-09T17:39:53.211Z,53.04
2018-07-09T17:42:22.794Z,52.90
2018-07-09T17:44:51.285Z,52.94
2018-07-09T17:47:19.895Z,52.54
2018-07-09T17:49:48.574Z,53.35
2018-07-09T17:52:17.253Z,53.12
2018-07-09T17:54:46.073Z,53.05
2018-07-09T17:57:15.322Z,53.79
2018-07-09T17:59:43.960Z,53.54
2018-07-09T18:02:12.478Z,54.35
2018-07-09T18:04:42.258Z,54.22
2018-07-09T18:07:11.084Z,54.41
2018-07-09T18:09:39.680Z,54.13
2018-07-09T18:12:08.303Z,54.61
2018-07-09T18:14:36.864Z,54.55
2018-07-09T18:17:05.566Z,54.16
2018-07-09T18:19:35.031Z,54.04
2018-07-09T18:22:03.610Z,55.09
2018-07-09T18:24:32.701Z,54.90
2018-07-09T18:27:06.104Z,54.87
2018-07-09T18:29:35.427Z,55.31
2018-07-09T18:32:04.073Z,55.67
2018-07-09T18:34:33.844Z,56.32
2018-07-09T18:37:03.018Z,55.97
2018-07-09T18:39:31.519Z,56.10
2018-07-09T18:42:00.241Z,56.56
2018-07-09T18:44:30.115Z,56.41
2018-07-09T18:46:59.203Z,56.49
2018-07-09T18:49:28.739Z,56.96
2018-07-09T18:51:57.758Z,57.00
2018-07-09T18:54:27.747Z,57.08
2018-07-09T18:56:57.171Z,56.23
2018-07-09T18:59:25.780Z,56.03
2018-07-09T19:01:54.831Z,56.34
2018-07-09T19:04:24.751Z,56.68
2018-07-09T19:06:59.235Z,56.96
2018-07-09T19:09:30.596Z,56.43
2018-07-09T19:12:05.088Z,55.72
2018-07-09T19:14:43.598Z,55.76
2018-07-09T19:19:25.788Z,56.18
2018-07-09T19:22:00.941Z,56.02
2018-07-09T19:24:29.123Z,56.26
2018-07-09T19:26:57.117Z,56.17
2018-07-09T19:29:25.221Z,55.95
2018-07-09T19:31:52.641Z,56.22
2018-07-09T19:34:20.071Z,55.00
2018-07-09T19:36:47.620Z,55.26
2018-07-09T19:39:15.804Z,54.62
2018-07-09T19:41:43.820Z,54.44
2018-07-09T19:44:11.327Z,54.42
2018-07-09T19:46:39.181Z,54.50
2018-07-09T19:49:08.161Z,54.66
2018-07-09T19:51:36.166Z,54.75
2018-07-09T19:54:03.491Z,54.63
2018-07-09T19:56:30.913Z,55.07
2018-07-09T19:58:59.356Z,54.96
2018-07-09T20:01:26.676Z,55.11
2018-07-09T20:03:54.220Z,54.53
2018-07-09T20:06:23.341Z,55.33
2018-07-09T20:08:56.040Z,55.66
2018-07-09T20:11:29.446Z,55.25
2018-07-09T20:14:02.904Z,55.81
2018-07-09T20:16:37.766Z,54.86
2018-07-09T20:19:05.036Z,55.82
2018-07-09T20:21:33.736Z,55.44
2018-07-09T20:24:01.366Z,55.59
2018-07-09T20:26:28.758Z,55.44
2018-07-09T20:28:57.756Z,55.12
2018-07-09T20:31:26.264Z,55.47
2018-07-09T20:33:53.934Z,55.76
2018-07-09T20:36:22.377Z,55.10
2018-07-09T20:38:49.697Z,55.25
2018-07-09T20:41:17.005Z,55.20
2018-07-09T20:43:45.841Z,55.79
2018-07-09T20:46:13.650Z,54.82
2018-07-09T20:48:40.929Z,55.04
2018-07-09T20:51:09.223Z,55.30
2018-07-09T20:53:37.863Z,55.32
2018-07-09T20:56:05.805Z,54.80
2018-07-09T20:58:33.892Z,54.85
2018-07-09T21:01:01.745Z,54.42
2018-07-09T21:03:30.189Z,54.86
2018-07-09T21:05:58.960Z,54.96
2018-07-09T21:08:26.378Z,54.10
2018-07-09T21:10:54.073Z,54.09
2018-07-09T21:13:21.381Z,54.07
2018-07-09T21:15:48.812Z,54.13
2018-07-09T21:18:16.009Z,54.25
2018-07-09T21:20:43.738Z,54.19
2018-07-09T21:23:11.888Z,54.77
2018-07-09T21:25:39.508Z,54.22
2018-07-09T21:28:08.275Z,54.64
2018-07-09T21:30:35.779Z,54.63
2018-07-09T21:33:04.067Z,54.38
2018-07-09T21:35:32.418Z,54.97
2018-07-09T21:38:01.807Z,54.59
2018-07-09T21:40:29.431Z,54.97
2018-07-09T21:42:57.843Z,54.65
2018-07-09T21:45:25.336Z,54.67
2018-07-09T21:47:59.219Z,55.03
2018-07-09T21:50:20.112Z,55.40
2018-07-09T21:52:47.453Z,55.19
2018-07-09T21:55:14.866Z,55.04
2018-07-09T21:57:42.466Z,55.37
2018-07-09T22:00:10.540Z,55.10
2018-07-09T22:02:38.411Z,55.45
2018-07-09T22:05:05.852Z,56.13
2018-07-09T22:07:35.019Z,56.19
2018-07-09T22:10:02.487Z,56.31
2018-07-09T22:12:29.803Z,56.77
2018-07-09T22:14:57.114Z,57.81
2018-07-09T22:17:24.403Z,58.00
2018-07-09T22:19:52.686Z,58.38
2018-07-09T22:22:21.379Z,58.22
2018-07-09T22:24:48.701Z,58.56
2018-07-09T22:27:16.022Z,58.37
2018-07-09T22:29:43.306Z,58.38
2018-07-09T22:32:11.923Z,58.56
2018-07-09T22:34:40.444Z,58.71
2018-07-09T22:37:09.001Z,58.50
2018-07-09T22:39:37.851Z,58.85
2018-07-09T22:42:06.398Z,58.86
2018-07-09T22:44:34.927Z,58.26
2018-07-09T22:47:05.048Z,57.79
2018-07-09T22:49:33.583Z,57.25
2018-07-09T22:52:02.084Z,57.38
2018-07-09T22:54:30.614Z,57.86
2018-07-09T22:56:59.152Z,58.40
2018-07-09T22:59:27.669Z,58.98
2018-07-09T23:01:56.217Z,59.57
2018-07-09T23:04:25.151Z,59.83
2018-07-09T23:06:53.793Z,59.81
2018-07-09T23:11:36.460Z,60.65
2018-07-09T23:16:48.949Z,59.73
2018-07-09T23:19:29.792Z,60.09
2018-07-09T23:22:09.632Z,60.19
2018-07-09T23:24:36.967Z,59.70
2018-07-09T23:27:04.297Z,59.67
2018-07-09T23:29:31.660Z,59.25
2018-07-09T23:31:58.983Z,59.87
2018-07-09T23:34:26.287Z,59.21
2018-07-09T23:36:53.574Z,60.26
2018-07-09T23:39:20.826Z,59.30
2018-07-09T23:41:48.476Z,58.88
2018-07-09T23:44:15.785Z,59.29
2018-07-09T23:46:43.117Z,58.88
2018-07-09T23:49:11.707Z,59.32
2018-07-09T23:51:39.094Z,59.37
2018-07-09T23:54:07.609Z,58.52
2018-07-09T23:59:50.460Z,58.41
